• Join FlightAware (Why Join?)
  • Login
  • US Flag 
05:01PM EDT


 

Airport Tracker/Info


-or-


 

Live Flight TrackerFlight Track Log ✈ AWE1840 ✈ 09-Jul-2014 ✈ KCLT - KPIT

Flight Track Log - Related Links

Times and Time Zones

All times are in EDT time to prevent confusion due to time zone crossing. See the AWE1840 flight status page for this flight to view local times or setup timezone preferences in your user account.

Time Position Orientation Groundspeed Altitude Reporting Facility
EDT Latitude Longitude Course Direction KTS MPH feet Rate Location/Type
06:34PM 35.1933 -80.9558 11° North 166 191 1,800  Level Atlanta Center
06:36PM 35.1131 -80.9994 204° Southwest 276 318 5,000 1,320 Climbing Atlanta Center
06:37PM 35.7016 -80.8870 North  Level Estimated
06:37PM 35.1628 -81.0664 312° West 269 310 5,400  Level Atlanta Center
06:38PM 35.8228 -80.8644 North  Level FlightAware Approximate
06:38PM 35.2264 -81.1147 328° Northwest 261 300 9,000  Level Atlanta Center
06:39PM 35.9443 -80.8473 11° North  Level FlightAware Approximate
06:39PM 35.3058 -81.1147 360° North 261 300 11,400  Level Atlanta Center
06:40PM 35.3964 -81.0656 24° Northeast 305 351 14,600 2,760 Climbing Atlanta Center
06:41PM 35.4981 -81.0389 12° North 333 383 17,000 2,520 Climbing Atlanta Center
06:42PM 35.6081 -81.0169 North 366 421 19,700 2,400 Climbing Atlanta Center
06:43PM 35.7156 -80.9822 15° North 390 449 21,900 1,920 Climbing Atlanta Center
06:44PM 35.8314 -80.9394 17° North 410 472 23,600 1,740 Climbing Atlanta Center
06:45PM 35.9492 -80.8967 16° North 421 484 25,400 1,620 Climbing Atlanta Center
06:46PM 36.0733 -80.8533 16° North 433 498 26,900 1,500 Climbing Atlanta Center
06:47PM 36.1911 -80.8100 17° North 466 536 28,400 1,500 Climbing Atlanta Center
06:48PM 36.3192 -80.7636 16° North 477 549 30,000 1,260 Climbing Atlanta Center
06:49PM 36.4492 -80.7169 16° North 477 549 31,000 480 Climbing Atlanta Center
06:50PM 36.5772 -80.6703 16° North 477 549 31,000  Level Atlanta Center
06:51PM 36.7053 -80.6208 17° North 472 543 31,000  Level Atlanta Center
06:53PM 37.0064 -80.5128 16° North 469 540 31,000  Level Washington Center
06:54PM 37.1356 -80.4664 16° North 480 552 31,000 -300 Level Washington Center
06:55PM 37.2647 -80.4172 17° North 490 564 30,500 -780 Descending Washington Center
06:56PM 37.3981 -80.3708 15° North 490 564 29,500 -780 Descending Washington Center
06:57PM 37.5272 -80.3214 17° North 485 558 29,000 -300 Descending Washington Center
06:58PM 37.6669 -80.2669 17° North 485 558 29,000 -60 Level Washington Center
06:59PM 37.7983 -80.2200 16° North 485 558 28,900 -600 Descending Washington Center
07:00PM 37.9275 -80.1700 17° North 485 558 27,800 -1,020 Descending Washington Center
07:01PM 38.0522 -80.1222 17° North 485 558 26,900 -1,020 Descending Washington Center
07:02PM 38.1814 -80.0744 16° North 480 552 25,800 -1,020 Descending Washington Center
07:03PM 38.3061 -80.0239 18° North 475 547 24,900 -900 Descending Washington Center
07:04PM 38.4353 -79.9758 16° North 475 547 24,000 -540 Descending Washington Center
07:05PM 38.5619 -79.9278 17° North 470 541 23,900 -720 Descending Washington Center
07:06PM 38.6825 -79.8817 17° North 470 541 22,700 -1,140 Descending Washington Center
07:07PM 38.7800 -79.8419 18° North 465 535 21,700 -660 Descending Washington Center
07:09PM 38.9983 -79.7503 18° North 445 512 21,000 -300 Descending Cleveland Center
07:10PM 39.1200 -79.7389 North 442 509 21,000  Level Cleveland Center
07:11PM 39.2397 -79.7364 North 436 502 21,000  Level Cleveland Center
07:12PM 39.3583 -79.7336 North 431 496 21,000 -300 Level Cleveland Center
07:13PM 39.4792 -79.7311 North 431 496 20,500 -780 Descending Cleveland Center
07:14PM 39.5997 -79.7278 North 434 499 19,500 -1,020 Descending Cleveland Center
07:15PM 39.7167 -79.7239 North 428 493 18,500 -1,380 Descending Cleveland Center
07:16PM 39.8531 -79.7211 North 414 476 16,700 -2,280 Descending Cleveland Center
07:17PM 39.9611 -79.7197 North 397 457 13,900 -2,640 Descending Cleveland Center
07:18PM 40.0653 -79.7169 North 383 441 11,300 -1,860 Descending Cleveland Center
07:19PM 40.1622 -79.7139 North 360 414 10,200 -660 Descending Cleveland Center
07:20PM 40.2358 -79.7503 339° North 298 343 10,000 -780 Descending Cleveland Center
07:21PM 40.3094 -79.7883 338° Northwest 288 331 8,700 -1,860 Descending Cleveland Center
07:22PM 40.3944 -79.8344 338° Northwest 282 325 6,200 -1,860 Descending Cleveland Center
07:23PM 40.4492 -79.8981 319° Northwest 267 307 5,000 -1,080 Descending Cleveland Center
07:24PM 40.4792 -79.9778 296° West 255 293 4,000 -960 Descending Cleveland Center
07:25PM 40.4811 -80.0650 272° West 248 285 3,100 -840 Descending Cleveland Center
07:26PM 40.4836 -80.1278 273° West 181 208 2,300 -840 Descending Cleveland Center
07:27PM 40.4850 -80.1847 272° West 146 168 1,500 -780 Descending Cleveland Center